Time;durP1;ratioP1;P1;durP2;ratioP2;P2;SDS_P1;SDS_P2;PMS_P1;PMS_P2;Temp;Humidity;BMP_temperature;BMP_pressure;BME280_temperature;BME280_humidity;BME280_pressure;Samples;Min_cycle;Max_cycle;Signal;HPM_P1;HPM_P2
2022/10/09 00:01:12;;;;;;;1.10;1.10;;;;;;;;;;5119446;28;20202;-66
2022/10/09 00:03:40;;;;;;;1.33;1.23;;;;;;;;;;5119897;28;20289;-65
2022/10/09 00:06:08;;;;;;;1.20;1.10;;;;;;;;;;5134459;27;20236;-66
2022/10/09 00:08:38;;;;;;;1.20;1.10;;;;;;;;;;5139683;27;20207;-65
2022/10/09 00:11:07;;;;;;;1.17;1.10;;;;;;;;;;5139730;27;20199;-66
2022/10/09 00:13:35;;;;;;;1.20;1.10;;;;;;;;;;5139593;27;20194;-66
2022/10/09 00:16:04;;;;;;;0.90;0.90;;;;;;;;;;5139723;27;20621;-66
2022/10/09 00:18:32;;;;;;;1.48;0.90;;;;;;;;;;5139387;27;20205;-67
2022/10/09 00:21:00;;;;;;;1.50;1.40;;;;;;;;;;5139837;27;20203;-65
2022/10/09 00:23:28;;;;;;;0.90;0.90;;;;;;;;;;5139823;27;20209;-66
2022/10/09 00:25:57;;;;;;;0.90;0.85;;;;;;;;;;5139625;27;20582;-66
2022/10/09 00:28:27;;;;;;;1.02;0.90;;;;;;;;;;5139183;27;20234;-65
2022/10/09 00:30:55;;;;;;;0.95;0.95;;;;;;;;;;5139492;27;20226;-65
2022/10/09 00:33:23;;;;;;;1.13;1.10;;;;;;;;;;5139697;27;20261;-66
2022/10/09 00:35:51;;;;;;;1.20;1.10;;;;;;;;;;5139351;27;20339;-66
2022/10/09 00:38:19;;;;;;;0.88;0.88;;;;;;;;;;5139466;27;20210;-66
2022/10/09 00:40:47;;;;;;;0.90;0.90;;;;;;;;;;5118849;28;20209;-66
2022/10/09 00:43:16;;;;;;;1.20;1.10;;;;;;;;;;5118671;28;20203;-66
2022/10/09 00:45:49;;;;;;;1.23;1.13;;;;;;;;;;5119406;28;20574;-65
2022/10/09 00:48:17;;;;;;;1.13;1.08;;;;;;;;;;5119179;28;20213;-66
2022/10/09 00:50:46;;;;;;;0.95;0.90;;;;;;;;;;5138706;27;20221;-66
2022/10/09 00:53:17;;;;;;;1.02;1.02;;;;;;;;;;5139159;27;20225;-65
2022/10/09 00:55:45;;;;;;;1.20;1.10;;;;;;;;;;5138703;27;20222;-65
2022/10/09 00:58:13;;;;;;;0.93;0.93;;;;;;;;;;5138832;27;20475;-66
2022/10/09 01:00:41;;;;;;;0.93;0.90;;;;;;;;;;5137955;27;20206;-66
2022/10/09 01:03:10;;;;;;;0.90;0.90;;;;;;;;;;5139340;27;20468;-66
2022/10/09 01:05:44;;;;;;;0.90;0.90;;;;;;;;;;5139006;27;20261;-66
2022/10/09 01:08:15;;;;;;;0.90;0.90;;;;;;;;;;5138959;27;20194;-66
2022/10/09 01:10:48;;;;;;;0.95;0.95;;;;;;;;;;5118524;27;20214;-67
2022/10/09 01:13:21;;;;;;;1.00;1.00;;;;;;;;;;5118346;28;20639;-66
2022/10/09 01:15:50;;;;;;;1.02;1.00;;;;;;;;;;5118153;28;20234;-65
2022/10/09 01:18:24;;;;;;;1.02;1.02;;;;;;;;;;5118464;28;20499;-66
2022/10/09 01:20:53;;;;;;;1.20;1.10;;;;;;;;;;5118149;28;20202;-66
2022/10/09 01:23:44;;;;;;;1.10;1.00;;;;;;;;;;5118322;28;20207;-66
2022/10/09 01:26:21;;;;;;;1.10;1.10;;;;;;;;;;5098860;28;20206;-65
2022/10/09 01:28:53;;;;;;;0.90;0.90;;;;;;;;;;5118542;28;20495;-65
2022/10/09 01:31:21;;;;;;;1.30;1.10;;;;;;;;;;5118047;28;20214;-65
2022/10/09 01:33:49;;;;;;;1.10;1.00;;;;;;;;;;5118129;28;20207;-66
2022/10/09 01:36:18;;;;;;;1.00;0.90;;;;;;;;;;5117974;28;20262;-66
2022/10/09 01:38:46;;;;;;;1.00;1.00;;;;;;;;;;5118343;28;20305;-65
2022/10/09 01:41:14;;;;;;;1.00;1.00;;;;;;;;;;5118170;28;20246;-66
2022/10/09 01:43:42;;;;;;;1.13;1.10;;;;;;;;;;5118792;27;20260;-66
2022/10/09 01:46:25;;;;;;;0.90;0.90;;;;;;;;;;5117781;28;20290;-66
2022/10/09 01:48:56;;;;;;;1.05;1.05;;;;;;;;;;5118035;28;20213;-66
2022/10/09 01:51:26;;;;;;;0.93;0.93;;;;;;;;;;5117779;28;20268;-66
2022/10/09 01:53:55;;;;;;;0.95;0.93;;;;;;;;;;5118134;28;20280;-66
2022/10/09 01:56:23;;;;;;;1.13;1.02;;;;;;;;;;5117567;28;20219;-66
2022/10/09 01:58:53;;;;;;;0.90;0.90;;;;;;;;;;5117968;28;20203;-66
2022/10/09 02:01:22;;;;;;;0.90;0.90;;;;;;;;;;5118235;28;20203;-66
2022/10/09 02:03:53;;;;;;;1.17;1.13;;;;;;;;;;5117691;28;20203;-66
2022/10/09 02:06:21;;;;;;;1.40;1.30;;;;;;;;;;5135462;27;20242;-66
2022/10/09 02:08:50;;;;;;;1.20;1.10;;;;;;;;;;5138291;27;20241;-66
2022/10/09 02:11:18;;;;;;;1.10;1.08;;;;;;;;;;5138185;28;20202;-65
2022/10/09 02:13:48;;;;;;;1.10;1.00;;;;;;;;;;5138214;27;20206;-66
2022/10/09 02:16:18;;;;;;;0.90;0.90;;;;;;;;;;5138448;27;20690;-66
2022/10/09 02:18:47;;;;;;;0.75;0.75;;;;;;;;;;5138632;27;20235;-66
2022/10/09 02:21:17;;;;;;;1.10;1.10;;;;;;;;;;5138636;27;20203;-66
2022/10/09 02:23:46;;;;;;;1.00;1.00;;;;;;;;;;5138363;27;20206;-66
2022/10/09 02:26:14;;;;;;;0.80;0.80;;;;;;;;;;5138271;28;20457;-66
2022/10/09 02:28:42;;;;;;;1.10;1.00;;;;;;;;;;5139040;27;20202;-66
2022/10/09 02:31:13;;;;;;;1.00;1.00;;;;;;;;;;5142110;27;20645;-66
2022/10/09 02:33:41;;;;;;;1.20;1.10;;;;;;;;;;5142491;27;20281;-67
2022/10/09 02:36:08;;;;;;;0.95;0.95;;;;;;;;;;5141762;27;20221;-65
2022/10/09 02:38:38;;;;;;;1.15;1.10;;;;;;;;;;5141812;27;20206;-66
2022/10/09 02:41:06;;;;;;;1.17;1.08;;;;;;;;;;5141631;27;20213;-66
2022/10/09 02:43:34;;;;;;;0.93;0.90;;;;;;;;;;5141882;27;20238;-65
2022/10/09 02:46:01;;;;;;;1.00;1.00;;;;;;;;;;5141935;27;20528;-65
2022/10/09 02:48:29;;;;;;;0.90;0.90;;;;;;;;;;5141933;27;20621;-66
2022/10/09 02:50:57;;;;;;;0.95;0.95;;;;;;;;;;5141555;27;20206;-65
2022/10/09 02:53:25;;;;;;;0.93;0.93;;;;;;;;;;5141879;27;20242;-66
2022/10/09 02:55:54;;;;;;;1.00;1.00;;;;;;;;;;5141335;27;20261;-66
2022/10/09 02:58:22;;;;;;;0.90;0.90;;;;;;;;;;5141202;27;20202;-67
2022/10/09 03:00:50;;;;;;;1.20;1.10;;;;;;;;;;5141286;27;20597;-65
2022/10/09 03:03:17;;;;;;;1.00;1.00;;;;;;;;;;5141812;27;20570;-66
2022/10/09 03:05:45;;;;;;;0.85;0.85;;;;;;;;;;5128678;27;20251;-67
2022/10/09 03:08:13;;;;;;;1.00;1.00;;;;;;;;;;5121558;28;20575;-66
2022/10/09 03:10:41;;;;;;;1.10;1.10;;;;;;;;;;5120977;28;20210;-65
2022/10/09 03:13:11;;;;;;;1.48;1.38;;;;;;;;;;5120906;28;20203;-66
2022/10/09 03:15:39;;;;;;;1.02;1.00;;;;;;;;;;5120541;28;20503;-66
2022/10/09 03:18:06;;;;;;;1.00;1.00;;;;;;;;;;5120973;28;20645;-66
2022/10/09 03:20:34;;;;;;;1.00;1.00;;;;;;;;;;5120550;28;20261;-66
2022/10/09 03:23:03;;;;;;;1.30;1.20;;;;;;;;;;5120485;28;20211;-65
2022/10/09 03:25:31;;;;;;;1.05;1.05;;;;;;;;;;5120828;28;20216;-66
2022/10/09 03:27:59;;;;;;;1.20;1.20;;;;;;;;;;5119655;28;20559;-66
2022/10/09 03:30:28;;;;;;;1.25;1.15;;;;;;;;;;5119762;28;20343;-66
2022/10/09 03:32:56;;;;;;;1.02;1.02;;;;;;;;;;5120160;28;20273;-66
2022/10/09 03:35:23;;;;;;;1.20;1.10;;;;;;;;;;5120089;28;20305;-65
2022/10/09 03:37:51;;;;;;;1.08;0.90;;;;;;;;;;5120053;28;20234;-66
2022/10/09 03:40:19;;;;;;;1.00;1.00;;;;;;;;;;5118560;28;20217;-66
2022/10/09 03:42:47;;;;;;;1.13;1.02;;;;;;;;;;5120549;28;20263;-66
2022/10/09 03:45:15;;;;;;;1.00;1.00;;;;;;;;;;5119723;28;20199;-66
2022/10/09 03:47:44;;;;;;;1.30;1.20;;;;;;;;;;5119861;28;20203;-66
2022/10/09 03:50:12;;;;;;;1.35;1.00;;;;;;;;;;5119905;28;20203;-65
2022/10/09 03:52:40;;;;;;;1.20;1.10;;;;;;;;;;5119900;28;20207;-66
2022/10/09 03:55:08;;;;;;;1.30;1.20;;;;;;;;;;5120217;28;20207;-66
2022/10/09 03:57:36;;;;;;;1.15;1.05;;;;;;;;;;5119490;28;20225;-66
2022/10/09 04:00:04;;;;;;;0.98;0.98;;;;;;;;;;5119286;28;20218;-65
2022/10/09 04:02:32;;;;;;;1.13;1.13;;;;;;;;;;5119832;28;20582;-66
2022/10/09 04:05:01;;;;;;;1.00;1.00;;;;;;;;;;5118788;27;20243;-66
2022/10/09 04:07:28;;;;;;;1.02;1.00;;;;;;;;;;5119418;28;20225;-66
2022/10/09 04:09:56;;;;;;;1.10;1.10;;;;;;;;;;5119521;28;20202;-66
2022/10/09 04:12:23;;;;;;;1.00;1.00;;;;;;;;;;5119655;28;20202;-66
2022/10/09 04:14:51;;;;;;;1.30;1.20;;;;;;;;;;5118498;28;20238;-66
2022/10/09 04:17:18;;;;;;;1.10;1.10;;;;;;;;;;5118981;28;20250;-66
2022/10/09 04:19:46;;;;;;;0.88;0.88;;;;;;;;;;5119307;28;20297;-66
2022/10/09 04:22:15;;;;;;;1.25;1.15;;;;;;;;;;5119130;28;20275;-66
2022/10/09 04:24:42;;;;;;;1.02;1.02;;;;;;;;;;5118725;28;20290;-66
2022/10/09 04:27:10;;;;;;;1.27;1.17;;;;;;;;;;5118983;28;20598;-66
2022/10/09 04:29:38;;;;;;;1.20;1.10;;;;;;;;;;5118964;28;20594;-66
2022/10/09 04:32:05;;;;;;;0.98;0.98;;;;;;;;;;5118996;28;20206;-66
2022/10/09 04:34:33;;;;;;;1.00;1.00;;;;;;;;;;5118619;28;20296;-65
2022/10/09 04:37:00;;;;;;;1.10;1.10;;;;;;;;;;5118667;28;20222;-67
2022/10/09 04:39:29;;;;;;;1.00;1.00;;;;;;;;;;5118584;28;20559;-65
2022/10/09 04:41:56;;;;;;;0.85;0.85;;;;;;;;;;5119273;28;20203;-66
2022/10/09 04:44:24;;;;;;;1.00;1.00;;;;;;;;;;5118585;28;20505;-65
2022/10/09 04:46:51;;;;;;;1.02;1.02;;;;;;;;;;5119001;28;20293;-66
2022/10/09 04:49:19;;;;;;;1.40;1.30;;;;;;;;;;5118853;28;20656;-67
2022/10/09 04:51:47;;;;;;;1.20;1.10;;;;;;;;;;5118807;28;20293;-65
2022/10/09 04:54:14;;;;;;;0.90;0.90;;;;;;;;;;5118385;28;20230;-66
2022/10/09 04:56:43;;;;;;;1.10;1.10;;;;;;;;;;5118738;28;20230;-66
2022/10/09 04:59:11;;;;;;;1.23;1.13;;;;;;;;;;5118732;28;20302;-66
2022/10/09 05:01:38;;;;;;;1.00;1.00;;;;;;;;;;5118147;28;20641;-65
2022/10/09 05:04:06;;;;;;;1.00;1.00;;;;;;;;;;5118544;28;20551;-66
2022/10/09 05:06:33;;;;;;;1.00;1.00;;;;;;;;;;5137131;27;20641;-66
2022/10/09 05:09:01;;;;;;;1.27;1.17;;;;;;;;;;5139302;27;20293;-65
2022/10/09 05:11:28;;;;;;;1.15;1.10;;;;;;;;;;5139422;27;20279;-66
2022/10/09 05:13:58;;;;;;;1.00;1.00;;;;;;;;;;5133855;27;20303;-65
2022/10/09 05:16:27;;;;;;;1.20;1.10;;;;;;;;;;5118488;28;20262;-65
2022/10/09 05:18:55;;;;;;;1.10;1.10;;;;;;;;;;5117521;28;20235;-67
2022/10/09 05:21:23;;;;;;;1.10;1.10;;;;;;;;;;5117840;28;20563;-66
2022/10/09 05:23:51;;;;;;;1.73;1.00;;;;;;;;;;5121276;27;20561;-67
2022/10/09 05:26:19;;;;;;;1.00;1.00;;;;;;;;;;5138519;27;20581;-68
2022/10/09 05:28:47;;;;;;;0.90;0.90;;;;;;;;;;5138289;27;20666;-66
2022/10/09 05:31:19;;;;;;;1.13;1.02;;;;;;;;;;5138469;27;20210;-65
2022/10/09 05:33:46;;;;;;;1.10;1.10;;;;;;;;;;5135467;27;20202;-66
2022/10/09 05:36:13;;;;;;;1.02;1.00;;;;;;;;;;5137403;27;20308;-66
2022/10/09 05:38:41;;;;;;;1.10;1.00;;;;;;;;;;5134408;27;20277;-66
2022/10/09 05:41:10;;;;;;;1.10;1.00;;;;;;;;;;5118256;28;20305;-66
2022/10/09 05:43:38;;;;;;;1.02;0.98;;;;;;;;;;5119630;28;20400;-67
2022/10/09 05:46:07;;;;;;;0.93;0.90;;;;;;;;;;5138771;27;20263;-66
2022/10/09 05:48:36;;;;;;;1.27;1.17;;;;;;;;;;5138935;28;20578;-66
2022/10/09 05:51:11;;;;;;;0.95;0.95;;;;;;;;;;5138820;28;20296;-66
2022/10/09 05:53:39;;;;;;;1.17;1.08;;;;;;;;;;5136787;28;20202;-66
2022/10/09 05:56:11;;;;;;;1.08;1.08;;;;;;;;;;5118029;28;20566;-65
2022/10/09 05:58:38;;;;;;;1.30;1.20;;;;;;;;;;5117885;28;20199;-66
2022/10/09 06:01:07;;;;;;;1.13;1.02;;;;;;;;;;5117837;28;20661;-67
2022/10/09 06:03:36;;;;;;;1.00;1.00;;;;;;;;;;5136981;27;20194;-66
2022/10/09 06:06:05;;;;;;;1.15;1.15;;;;;;;;;;5141355;27;20226;-66
2022/10/09 06:08:33;;;;;;;1.00;1.00;;;;;;;;;;5142343;27;20301;-65
2022/10/09 06:11:09;;;;;;;1.00;1.00;;;;;;;;;;5137898;27;20198;-66
2022/10/09 06:13:36;;;;;;;0.95;0.95;;;;;;;;;;5122742;27;20193;-66
2022/10/09 06:16:04;;;;;;;1.10;1.10;;;;;;;;;;5121205;28;20202;-66
2022/10/09 06:18:32;;;;;;;0.90;0.90;;;;;;;;;;5139898;27;20270;-66
2022/10/09 06:21:01;;;;;;;1.20;1.10;;;;;;;;;;5126777;27;20195;-66
2022/10/09 06:23:30;;;;;;;1.00;1.00;;;;;;;;;;5122017;28;20277;-66
2022/10/09 06:26:00;;;;;;;1.08;1.08;;;;;;;;;;5121817;28;20203;-65
2022/10/09 06:28:29;;;;;;;1.30;1.20;;;;;;;;;;5120411;28;20199;-67
2022/10/09 06:31:00;;;;;;;1.00;1.00;;;;;;;;;;5112726;28;20586;-66
2022/10/09 06:33:29;;;;;;;1.15;1.15;;;;;;;;;;5121121;28;20242;-65
2022/10/09 06:36:01;;;;;;;1.15;1.15;;;;;;;;;;5120810;28;20211;-66
2022/10/09 06:38:29;;;;;;;1.00;1.00;;;;;;;;;;5120821;28;20712;-65
2022/10/09 06:40:56;;;;;;;1.48;1.10;;;;;;;;;;5120726;28;20291;-66
2022/10/09 06:43:24;;;;;;;1.10;1.00;;;;;;;;;;5131243;27;20292;-67
2022/10/09 06:45:51;;;;;;;1.20;1.20;;;;;;;;;;5141454;27;20292;-66
2022/10/09 06:48:18;;;;;;;1.00;1.00;;;;;;;;;;5141554;27;20294;-66
2022/10/09 06:50:46;;;;;;;1.10;1.10;;;;;;;;;;5140973;27;20202;-67
2022/10/09 06:53:15;;;;;;;1.25;1.15;;;;;;;;;;5132168;27;20550;-66
2022/10/09 06:55:51;;;;;;;1.10;1.10;;;;;;;;;;5120825;28;20602;-66
2022/10/09 06:58:19;;;;;;;1.30;1.20;;;;;;;;;;5120607;28;20265;-66
2022/10/09 07:00:46;;;;;;;1.52;1.20;;;;;;;;;;5121032;28;20203;-66
2022/10/09 07:03:14;;;;;;;1.30;1.10;;;;;;;;;;5128314;27;20279;-66
2022/10/09 07:05:42;;;;;;;1.20;1.10;;;;;;;;;;5140981;27;20336;-66
2022/10/09 07:08:10;;;;;;;1.33;1.13;;;;;;;;;;5140620;27;20253;-66
2022/10/09 07:10:38;;;;;;;0.90;0.90;;;;;;;;;;5141174;27;20292;-66
2022/10/09 07:13:06;;;;;;;1.00;1.00;;;;;;;;;;5133691;27;20286;-66
2022/10/09 07:15:34;;;;;;;1.10;1.10;;;;;;;;;;5120148;27;20636;-66
2022/10/09 07:18:04;;;;;;;1.00;1.00;;;;;;;;;;5119805;28;20222;-66
2022/10/09 07:20:31;;;;;;;1.25;1.15;;;;;;;;;;5120252;28;20582;-66
2022/10/09 07:22:59;;;;;;;1.00;1.00;;;;;;;;;;5125578;27;20206;-66
2022/10/09 07:25:26;;;;;;;2.08;1.30;;;;;;;;;;5140366;27;20245;-65
2022/10/09 07:27:55;;;;;;;1.00;1.00;;;;;;;;;;5140516;27;20277;-65
2022/10/09 07:30:22;;;;;;;1.73;1.08;;;;;;;;;;5140489;27;20291;-67
2022/10/09 07:32:52;;;;;;;2.25;1.33;;;;;;;;;;5136620;27;20315;-65
2022/10/09 07:35:19;;;;;;;1.00;1.00;;;;;;;;;;5119823;27;20235;-65
2022/10/09 07:37:47;;;;;;;1.88;1.15;;;;;;;;;;5138046;27;20254;-66
2022/10/09 07:40:14;;;;;;;1.40;1.02;;;;;;;;;;5140260;27;20210;-66
2022/10/09 07:42:42;;;;;;;0.90;0.90;;;;;;;;;;5128953;27;20308;-65
2022/10/09 07:45:11;;;;;;;0.95;0.95;;;;;;;;;;5139488;27;20297;-66
2022/10/09 07:47:38;;;;;;;1.30;1.20;;;;;;;;;;5139602;27;20264;-67
2022/10/09 07:50:06;;;;;;;1.00;1.00;;;;;;;;;;5139912;27;20670;-65
2022/10/09 07:52:34;;;;;;;1.95;1.20;;;;;;;;;;5137826;27;20264;-65
2022/10/09 07:55:01;;;;;;;1.50;1.35;;;;;;;;;;5118948;28;20235;-66
2022/10/09 07:57:28;;;;;;;1.25;1.10;;;;;;;;;;5118757;28;20707;-66
2022/10/09 07:59:56;;;;;;;1.52;1.00;;;;;;;;;;5119237;28;20286;-65
2022/10/09 08:02:25;;;;;;;2.78;1.10;;;;;;;;;;5119088;28;20234;-66
2022/10/09 08:04:53;;;;;;;1.10;1.00;;;;;;;;;;5098557;28;20741;-66
2022/10/09 08:07:20;;;;;;;1.02;1.02;;;;;;;;;;5108825;27;20191;-66
2022/10/09 08:09:47;;;;;;;1.70;1.30;;;;;;;;;;5121711;27;20286;-66
2022/10/09 08:12:15;;;;;;;1.65;1.10;;;;;;;;;;5115831;28;20832;-66
2022/10/09 08:14:42;;;;;;;3.28;1.17;;;;;;;;;;5119070;27;20230;-66
2022/10/09 08:17:10;;;;;;;1.08;1.08;;;;;;;;;;5118022;28;20491;-66
2022/10/09 08:19:39;;;;;;;1.38;1.20;;;;;;;;;;5117941;28;20591;-66
2022/10/09 08:22:07;;;;;;;1.45;1.20;;;;;;;;;;5117661;28;20207;-66
2022/10/09 08:24:34;;;;;;;1.00;1.00;;;;;;;;;;5118525;28;20237;-66
2022/10/09 08:27:02;;;;;;;1.23;1.13;;;;;;;;;;5117661;28;20238;-66
2022/10/09 08:29:29;;;;;;;1.17;1.10;;;;;;;;;;5118532;28;20293;-66
2022/10/09 08:31:57;;;;;;;1.10;1.00;;;;;;;;;;5118636;28;20199;-66
2022/10/09 08:34:24;;;;;;;0.98;0.98;;;;;;;;;;5118758;28;20297;-66
2022/10/09 08:36:53;;;;;;;1.30;1.20;;;;;;;;;;5118967;28;20294;-66
2022/10/09 08:39:21;;;;;;;2.45;1.35;;;;;;;;;;5118491;28;20323;-66
2022/10/09 08:41:49;;;;;;;3.28;1.10;;;;;;;;;;5117821;28;20203;-66
2022/10/09 08:44:21;;;;;;;1.20;1.10;;;;;;;;;;5135484;27;20225;-67
2022/10/09 08:47:00;;;;;;;1.25;1.15;;;;;;;;;;5138468;27;20290;-66
2022/10/09 08:49:30;;;;;;;1.70;1.15;;;;;;;;;;5137853;27;20281;-65
2022/10/09 08:52:02;;;;;;;1.30;1.20;;;;;;;;;;5119357;27;20571;-67
2022/10/09 08:54:34;;;;;;;2.72;1.20;;;;;;;;;;5137963;27;20255;-66
2022/10/09 08:57:03;;;;;;;1.30;1.20;;;;;;;;;;5138415;27;20305;-67
2022/10/09 08:59:31;;;;;;;3.97;1.50;;;;;;;;;;5138352;27;20244;-66
2022/10/09 09:02:02;;;;;;;2.13;1.40;;;;;;;;;;5137237;27;20206;-66
2022/10/09 09:04:39;;;;;;;1.70;1.35;;;;;;;;;;5131674;27;20198;-67
2022/10/09 09:07:13;;;;;;;2.60;1.20;;;;;;;;;;5137478;27;20208;-65
2022/10/09 09:09:44;;;;;;;1.63;1.38;;;;;;;;;;5138124;27;20266;-66
2022/10/09 09:12:13;;;;;;;2.72;1.30;;;;;;;;;;5138068;27;20348;-67
2022/10/09 09:14:47;;;;;;;1.83;1.38;;;;;;;;;;5137238;27;20233;-72
2022/10/09 09:17:18;;;;;;;2.75;1.50;;;;;;;;;;5137885;27;20198;-67
2022/10/09 09:19:55;;;;;;;2.28;1.50;;;;;;;;;;5134607;27;20191;-67
2022/10/09 09:22:25;;;;;;;1.80;1.25;;;;;;;;;;5096492;28;20202;-67
2022/10/09 09:24:54;;;;;;;1.42;1.30;;;;;;;;;;5096580;28;20500;-66
2022/10/09 09:27:23;;;;;;;1.40;1.30;;;;;;;;;;5097158;28;20302;-67
2022/10/09 09:29:53;;;;;;;2.40;1.65;;;;;;;;;;5096730;28;20605;-65
2022/10/09 09:32:22;;;;;;;1.75;1.60;;;;;;;;;;5096339;28;20292;-65
2022/10/09 09:34:50;;;;;;;2.90;1.50;;;;;;;;;;5096489;28;20239;-65
2022/10/09 09:37:18;;;;;;;2.03;1.48;;;;;;;;;;5098655;27;20211;-67
2022/10/09 09:39:47;;;;;;;1.80;1.50;;;;;;;;;;5136193;27;20225;-66
2022/10/09 09:42:15;;;;;;;1.60;1.50;;;;;;;;;;5136068;27;20285;-67
2022/10/09 09:44:45;;;;;;;1.48;1.38;;;;;;;;;;5137808;27;20297;-66
2022/10/09 09:47:15;;;;;;;2.10;1.70;;;;;;;;;;5137334;27;20257;-65
2022/10/09 09:49:53;;;;;;;1.60;1.50;;;;;;;;;;5136669;27;20267;-65
2022/10/09 09:52:21;;;;;;;2.30;1.50;;;;;;;;;;5137229;28;20202;-66
2022/10/09 09:54:50;;;;;;;1.98;1.80;;;;;;;;;;5137506;28;20661;-66
2022/10/09 09:57:21;;;;;;;2.22;1.52;;;;;;;;;;5136702;28;20234;-66
2022/10/09 09:59:49;;;;;;;2.63;1.63;;;;;;;;;;5137291;28;20275;-66
2022/10/09 10:02:18;;;;;;;1.75;1.40;;;;;;;;;;5136215;28;20194;-66
2022/10/09 10:04:53;;;;;;;1.98;1.40;;;;;;;;;;5136130;28;20234;-65
2022/10/09 10:07:30;;;;;;;2.25;1.60;;;;;;;;;;5136889;28;20236;-65
2022/10/09 10:10:07;;;;;;;4.78;1.67;;;;;;;;;;5138750;27;20284;-66
2022/10/09 10:12:40;;;;;;;2.17;1.48;;;;;;;;;;5136959;28;20556;-65
2022/10/09 10:15:16;;;;;;;3.92;1.55;;;;;;;;;;5136612;28;20645;-67
2022/10/09 10:17:44;;;;;;;4.82;1.65;;;;;;;;;;5136759;28;20258;-65
2022/10/09 10:20:15;;;;;;;5.97;1.95;;;;;;;;;;5136136;28;20531;-65
2022/10/09 10:22:47;;;;;;;4.50;2.00;;;;;;;;;;5136748;27;20302;-65
2022/10/09 10:25:18;;;;;;;6.20;1.60;;;;;;;;;;5136714;27;20206;-65
2022/10/09 10:27:49;;;;;;;5.50;1.80;;;;;;;;;;5137313;27;20202;-67
2022/10/09 10:30:18;;;;;;;2.35;1.38;;;;;;;;;;5136871;28;20205;-65
2022/10/09 10:32:51;;;;;;;3.40;1.40;;;;;;;;;;5136055;27;20259;-65
2022/10/09 10:35:20;;;;;;;4.18;1.60;;;;;;;;;;5135675;28;20225;-65
2022/10/09 10:37:50;;;;;;;2.92;1.70;;;;;;;;;;5135958;28;20218;-65
2022/10/09 10:40:22;;;;;;;5.00;1.70;;;;;;;;;;5136131;28;20214;-65
2022/10/09 10:42:56;;;;;;;3.40;1.55;;;;;;;;;;5135688;27;20208;-65
2022/10/09 10:45:27;;;;;;;3.10;1.50;;;;;;;;;;5136386;28;20520;-65
2022/10/09 10:47:57;;;;;;;1.80;1.38;;;;;;;;;;5136773;28;20544;-65
2022/10/09 10:50:29;;;;;;;2.65;1.20;;;;;;;;;;5138752;27;20202;-65
2022/10/09 10:53:02;;;;;;;2.47;1.50;;;;;;;;;;5140091;27;20301;-65
2022/10/09 10:55:36;;;;;;;1.90;1.30;;;;;;;;;;5140254;27;20213;-65
2022/10/09 10:58:09;;;;;;;3.63;1.58;;;;;;;;;;5139603;27;20300;-65
2022/10/09 11:00:39;;;;;;;1.30;1.10;;;;;;;;;;5139620;27;20263;-65
2022/10/09 11:03:28;;;;;;;3.05;1.27;;;;;;;;;;5140166;27;20210;-65
2022/10/09 11:05:56;;;;;;;1.75;1.30;;;;;;;;;;5139774;27;20295;-65
2022/10/09 11:08:40;;;;;;;1.90;1.48;;;;;;;;;;5139768;27;20198;-65
2022/10/09 11:11:14;;;;;;;3.13;1.40;;;;;;;;;;5139587;27;20759;-66
2022/10/09 11:13:47;;;;;;;7.45;5.15;;;;;;;;;;5139921;27;20266;-67
2022/10/09 11:16:20;;;;;;;7.15;6.25;;;;;;;;;;5139802;27;20194;-66
2022/10/09 11:18:55;;;;;;;6.70;6.10;;;;;;;;;;5138824;27;20319;-66
2022/10/09 11:21:31;;;;;;;6.30;5.75;;;;;;;;;;5139815;27;20202;-65
2022/10/09 11:24:13;;;;;;;6.60;5.68;;;;;;;;;;5139509;27;20202;-65
2022/10/09 11:26:46;;;;;;;5.00;4.60;;;;;;;;;;5139475;27;20267;-65
2022/10/09 11:29:17;;;;;;;5.05;4.30;;;;;;;;;;5139405;27;20570;-65
2022/10/09 11:31:48;;;;;;;4.80;4.30;;;;;;;;;;5139558;27;20546;-65
2022/10/09 11:34:20;;;;;;;6.28;4.78;;;;;;;;;;5139033;27;20202;-65
2022/10/09 11:36:47;;;;;;;4.70;4.30;;;;;;;;;;5139492;27;20275;-65
2022/10/09 11:39:17;;;;;;;7.13;4.43;;;;;;;;;;5139037;27;20707;-65
2022/10/09 11:41:47;;;;;;;4.72;3.47;;;;;;;;;;5139484;27;20202;-65
2022/10/09 11:44:26;;;;;;;5.22;3.83;;;;;;;;;;5138652;27;20570;-65
2022/10/09 11:46:58;;;;;;;4.43;3.53;;;;;;;;;;5138940;27;20202;-65
2022/10/09 11:49:29;;;;;;;4.38;3.58;;;;;;;;;;5139608;27;20566;-65
2022/10/09 11:52:01;;;;;;;5.55;3.47;;;;;;;;;;5138252;27;20301;-65
2022/10/09 11:54:29;;;;;;;4.13;3.67;;;;;;;;;;5138174;27;20241;-65
2022/10/09 11:57:00;;;;;;;3.70;3.40;;;;;;;;;;5137299;27;20577;-66
2022/10/09 11:59:30;;;;;;;4.68;3.03;;;;;;;;;;5138078;27;20313;-65
2022/10/09 12:01:58;;;;;;;3.25;2.95;;;;;;;;;;5136061;27;20681;-65
2022/10/09 12:04:29;;;;;;;4.47;3.17;;;;;;;;;;5137681;27;20241;-66
2022/10/09 12:06:58;;;;;;;4.10;3.03;;;;;;;;;;5137280;27;20202;-66
2022/10/09 12:09:30;;;;;;;3.65;3.00;;;;;;;;;;5138151;27;20199;-65
2022/10/09 12:12:02;;;;;;;3.90;2.80;;;;;;;;;;5138437;27;20217;-65
2022/10/09 12:14:30;;;;;;;3.72;2.90;;;;;;;;;;5138658;27;20267;-65
2022/10/09 12:16:59;;;;;;;2.83;2.63;;;;;;;;;;5139240;27;20203;-65
2022/10/09 12:19:28;;;;;;;2.63;2.42;;;;;;;;;;5137846;27;20237;-65
2022/10/09 12:22:00;;;;;;;3.10;2.58;;;;;;;;;;5138443;27;20614;-66
2022/10/09 12:24:29;;;;;;;3.30;2.45;;;;;;;;;;5136899;27;20203;-65
2022/10/09 12:27:02;;;;;;;2.75;2.45;;;;;;;;;;5137989;27;20206;-66
2022/10/09 12:29:32;;;;;;;2.67;2.47;;;;;;;;;;5136216;27;20762;-66
2022/10/09 12:32:02;;;;;;;2.90;2.28;;;;;;;;;;5137436;27;20206;-65
2022/10/09 12:34:31;;;;;;;2.90;2.20;;;;;;;;;;5136749;27;20306;-65
2022/10/09 12:37:11;;;;;;;2.42;2.22;;;;;;;;;;5137021;27;20209;-65
2022/10/09 12:39:39;;;;;;;2.92;2.22;;;;;;;;;;5136447;27;20222;-65
2022/10/09 12:42:09;;;;;;;5.47;2.30;;;;;;;;;;5136136;27;20204;-66
2022/10/09 12:44:38;;;;;;;4.32;2.50;;;;;;;;;;5137131;27;20239;-65
2022/10/09 12:47:07;;;;;;;3.30;2.40;;;;;;;;;;5137673;27;20231;-65
2022/10/09 12:49:34;;;;;;;2.70;2.17;;;;;;;;;;5137281;27;20279;-65
2022/10/09 12:52:02;;;;;;;3.17;2.08;;;;;;;;;;5136970;27;20262;-65
2022/10/09 12:54:31;;;;;;;2.00;1.80;;;;;;;;;;5137249;27;20669;-66
2022/10/09 12:57:00;;;;;;;2.38;2.17;;;;;;;;;;5136330;27;20212;-66
2022/10/09 12:59:29;;;;;;;2.40;2.03;;;;;;;;;;5136149;27;20602;-67
2022/10/09 13:01:58;;;;;;;3.22;1.88;;;;;;;;;;5137277;27;20209;-65
2022/10/09 13:04:28;;;;;;;3.45;2.13;;;;;;;;;;5137174;27;20577;-65
2022/10/09 13:06:56;;;;;;;2.28;1.85;;;;;;;;;;5136729;27;20717;-67
2022/10/09 13:09:25;;;;;;;2.50;2.10;;;;;;;;;;5134269;27;20194;-68
2022/10/09 13:11:55;;;;;;;2.47;1.90;;;;;;;;;;5137012;27;20332;-70
2022/10/09 13:14:25;;;;;;;3.70;2.13;;;;;;;;;;5136699;27;20431;-68
2022/10/09 13:16:54;;;;;;;3.30;1.83;;;;;;;;;;5135919;27;20301;-67
2022/10/09 13:19:22;;;;;;;2.97;1.77;;;;;;;;;;5136094;27;20296;-68
2022/10/09 13:22:00;;;;;;;3.25;1.33;;;;;;;;;;5136704;27;20266;-68
2022/10/09 13:24:28;;;;;;;2.88;1.42;;;;;;;;;;5095919;28;20276;-67
2022/10/09 13:26:55;;;;;;;2.15;1.48;;;;;;;;;;5096172;28;20204;-68
2022/10/09 13:29:23;;;;;;;2.65;1.52;;;;;;;;;;5096086;28;20471;-68
2022/10/09 13:31:50;;;;;;;2.35;1.60;;;;;;;;;;5095986;28;20210;-68
2022/10/09 13:34:22;;;;;;;3.67;1.50;;;;;;;;;;5096118;28;20235;-69
2022/10/09 13:36:50;;;;;;;2.15;1.40;;;;;;;;;;5096494;28;20200;-68
2022/10/09 13:39:17;;;;;;;2.40;1.48;;;;;;;;;;5095747;28;20262;-68
2022/10/09 13:41:45;;;;;;;1.50;1.00;;;;;;;;;;5095715;28;20246;-68
2022/10/09 13:44:13;;;;;;;2.05;0.98;;;;;;;;;;5096148;28;20302;-67
2022/10/09 13:46:40;;;;;;;4.28;1.33;;;;;;;;;;5095438;28;20207;-69
2022/10/09 13:49:08;;;;;;;2.35;1.10;;;;;;;;;;5132768;28;20279;-68
2022/10/09 13:51:38;;;;;;;5.20;1.38;;;;;;;;;;5121107;28;20690;-68
2022/10/09 13:54:06;;;;;;;2.90;1.20;;;;;;;;;;5115861;28;20203;-68
2022/10/09 13:56:33;;;;;;;2.72;1.23;;;;;;;;;;5114685;28;20209;-68
2022/10/09 13:59:03;;;;;;;3.95;1.23;;;;;;;;;;5115645;28;20290;-68
2022/10/09 14:01:33;;;;;;;2.97;1.23;;;;;;;;;;5115422;28;20211;-68
2022/10/09 14:04:01;;;;;;;2.20;1.20;;;;;;;;;;5115103;28;20210;-68
2022/10/09 14:06:28;;;;;;;1.55;1.17;;;;;;;;;;5133269;27;20258;-69
2022/10/09 14:08:57;;;;;;;4.90;1.30;;;;;;;;;;5135888;27;20292;-68
2022/10/09 14:11:24;;;;;;;4.07;1.40;;;;;;;;;;5136447;28;20719;-68
2022/10/09 14:13:53;;;;;;;1.90;1.02;;;;;;;;;;5135999;27;20278;-68
2022/10/09 14:16:21;;;;;;;5.82;1.30;;;;;;;;;;5135846;27;20202;-68
2022/10/09 14:18:49;;;;;;;2.72;1.00;;;;;;;;;;5119283;28;20247;-68
2022/10/09 14:21:16;;;;;;;2.72;1.20;;;;;;;;;;5135041;28;20316;-68
2022/10/09 14:23:44;;;;;;;1.90;1.05;;;;;;;;;;5135228;27;20788;-68
2022/10/09 14:26:13;;;;;;;2.25;1.25;;;;;;;;;;5138013;27;20253;-69
2022/10/09 14:28:40;;;;;;;1.77;1.00;;;;;;;;;;5139660;27;20556;-69
2022/10/09 14:31:08;;;;;;;2.78;1.00;;;;;;;;;;5139213;27;20628;-68
2022/10/09 14:33:35;;;;;;;1.25;1.10;;;;;;;;;;5138818;27;20198;-69
2022/10/09 14:36:07;;;;;;;3.80;1.30;;;;;;;;;;5139320;27;20267;-68
2022/10/09 14:38:37;;;;;;;3.00;1.10;;;;;;;;;;5138915;27;20697;-68
2022/10/09 14:41:04;;;;;;;3.17;1.27;;;;;;;;;;5139022;27;20229;-69
2022/10/09 14:43:34;;;;;;;1.50;1.02;;;;;;;;;;5138735;27;20202;-68
2022/10/09 14:46:02;;;;;;;1.33;1.05;;;;;;;;;;5137917;27;20286;-68
2022/10/09 14:48:29;;;;;;;2.28;1.13;;;;;;;;;;5138192;27;20281;-68
2022/10/09 14:50:57;;;;;;;2.38;1.10;;;;;;;;;;5138368;27;20202;-69
2022/10/09 14:53:24;;;;;;;3.03;1.20;;;;;;;;;;5137966;27;20242;-68
2022/10/09 14:55:52;;;;;;;1.75;1.10;;;;;;;;;;5139053;27;20201;-68